Fure West — OZ2100 — position and weather

sailwx.info

Track history (hours):
 
Tides and Currents Weather Stations Pressure Air Temp Water Temp Dewpoint Dewpoint Depression Visibility Wind Speed Wind Dir Waves Ship Positions

Fure West

Last reported at 2014-Sep-01 07:33 UTC. Time now 2014-Sep-01 07:52 UTC.
Position N 52°32' E 004°17'.

Length 144 m; draft 5.9 m.

Type: Tanker. MMSI: 231775000.

Date/timePositionNaut miles runAvg speedWind from/ knotsBaromVisibWave heightAir tempDewpointWater temp
2014-Sep-01 07:33N 52°32' E 004°17'0 0.0
2014-Sep-01 06:33N 52°32' E 004°17'0 0.0
2014-Sep-01 05:33N 52°32' E 004°17'0 0.1
2014-Sep-01 04:33N 52°32' E 004°17'0 0.0
2014-Sep-01 03:33N 52°32' E 004°17'0 0.0
2014-Sep-01 02:33N 52°32' E 004°17'0 0.0
2014-Sep-01 01:33N 52°32' E 004°17'0 0.0
2014-Sep-01 00:33N 52°32' E 004°17'0 0.0
2014-Aug-31 23:33N 52°32' E 004°17'0 0.0
2014-Aug-31 22:33N 52°32' E 004°17'0 0.0
2014-Aug-31 21:33N 52°32' E 004°17'0 0.0
2014-Aug-31 20:30N 52°32' E 004°17'0 0.0
2014-Aug-31 19:30N 52°32' E 004°17'0 0.0
2014-Aug-31 18:33N 52°32' E 004°17'0 0.0
2014-Aug-31 17:33N 52°32' E 004°17'0 0.1
2014-Aug-31 16:33N 52°32' E 004°17'0 0.0
2014-Aug-31 15:33N 52°32' E 004°17'0 0.0
2014-Aug-31 14:33N 52°32' E 004°17'0 0.0
2014-Aug-31 13:33N 52°32' E 004°17'0 0.0
2014-Aug-31 12:33N 52°32' E 004°17'0 0.0
2014-Aug-31 11:33N 52°32' E 004°17'0 0.0
2014-Aug-31 10:33N 52°32' E 004°17'0 0.0
2014-Aug-31 09:33N 52°32' E 004°17'0 0.1
2014-Aug-31 08:33N 52°32' E 004°17'0 0.0
2014-Aug-31 07:33N 52°32' E 004°17'0 0.0
2014-Aug-31 06:33N 52°32' E 004°17'0 0.0
2014-Aug-31 05:33N 52°32' E 004°17'0 0.0
2014-Aug-31 04:33N 52°32' E 004°17'0 0.1
2014-Aug-31 03:33N 52°32' E 004°17'0 0.0
2014-Aug-31 02:33N 52°32' E 004°17'0 0.0
2014-Aug-31 01:33N 52°32' E 004°17'0 0.0
2014-Aug-31 00:33N 52°32' E 004°17'0 0.0
2014-Aug-30 23:33N 52°32' E 004°17'0 0.0
2014-Aug-30 22:33N 52°32' E 004°17'0 0.1
2014-Aug-30 21:33N 52°32' E 004°17'0 0.0
2014-Aug-30 20:33N 52°32' E 004°17'0 0.0
2014-Aug-30 19:33N 52°32' E 004°17'0 0.0
2014-Aug-30 18:33N 52°32' E 004°17'0 0.0
2014-Aug-30 17:33N 52°32' E 004°17'7 7.0
2014-Aug-30 16:33N 52°29' E 004°27'6 5.9
2014-Aug-30 15:33N 52°28' E 004°37'0 0.0
2014-Aug-30 14:34N 52°28' E 004°37'3 3.1
2014-Aug-30 13:33N 52°27' E 004°41'6 5.6
2014-Aug-30 12:33N 52°24' E 004°50'0 0.0
2014-Aug-30 11:33N 52°24' E 004°50'0 0.0
2014-Aug-30 10:33N 52°24' E 004°50'0 0.0
2014-Aug-30 09:33N 52°24' E 004°50'0 0.0
2014-Aug-30 08:33N 52°24' E 004°50'0 0.0
2014-Aug-30 07:33N 52°24' E 004°50'0 0.0
2014-Aug-30 06:33N 52°24' E 004°50'0 0.0
2014-Aug-30 05:33N 52°24' E 004°50'0 0.0
2014-Aug-30 04:33N 52°24' E 004°50'0 0.0
2014-Aug-30 03:33N 52°24' E 004°50'0 0.0
2014-Aug-30 02:33N 52°24' E 004°50'0 0.0
2014-Aug-30 01:33N 52°24' E 004°50'0 0.0
2014-Aug-30 00:33N 52°24' E 004°50'0 0.0
2014-Aug-29 23:33N 52°24' E 004°50'0 0.0
2014-Aug-29 22:30N 52°24' E 004°50'0 0.0
2014-Aug-29 21:33N 52°24' E 004°50'0 0.0
2014-Aug-29 19:30N 52°24' E 004°50'0 0.0
2014-Aug-29 18:33N 52°24' E 004°50'0 0.0
2014-Aug-29 17:33N 52°24' E 004°50'0 0.0
2014-Aug-29 16:30N 52°24' E 004°50'0 0.0
2014-Aug-29 15:30N 52°24' E 004°50'0 0.0
2014-Aug-29 14:33N 52°24' E 004°50'0 0.1
2014-Aug-29 13:33N 52°24' E 004°50'4 4.1
2014-Aug-29 12:33N 52°26' E 004°43'5 4.6
2014-Aug-29 11:33N 52°28' E 004°37'6 6.4
2014-Aug-29 10:33N 52°28' E 004°26'9 8.6
2014-Aug-29 09:33N 52°29' E 004°12'7 6.5
2014-Aug-29 08:32N 52°27' E 004°02'0 0.0
2014-Aug-29 07:32N 52°27' E 004°02'0 0.0
2014-Aug-29 06:32N 52°27' E 004°01'0 0.0
2014-Aug-29 05:32N 52°27' E 004°01'0 0.0
2014-Aug-29 04:32N 52°27' E 004°01'0 0.0
2014-Aug-29 03:32N 52°27' E 004°01'0 0.0
2014-Aug-29 02:32N 52°27' E 004°02'0 0.0
2014-Aug-29 01:32N 52°27' E 004°02'0 0.1
2014-Aug-29 00:32N 52°27' E 004°01'0 0.0
2014-Aug-28 23:32N 52°27' E 004°01'0 0.0
2014-Aug-28 22:32N 52°27' E 004°01'0 0.1
2014-Aug-28 21:32N 52°27' E 004°02'0 0.1
2014-Aug-28 20:32N 52°27' E 004°02'0 0.0
2014-Aug-28 19:32N 52°27' E 004°01'0 0.0
2014-Aug-28 18:29N 52°27' E 004°01'0 0.0
2014-Aug-28 17:32N 52°27' E 004°01'0 0.0
2014-Aug-28 16:32N 52°27' E 004°01'0 0.0
2014-Aug-28 15:32N 52°27' E 004°01'0 0.0
2014-Aug-28 14:32N 52°27' E 004°01'0 0.0
2014-Aug-28 13:32N 52°27' E 004°01'0 0.1
2014-Aug-28 12:32N 52°27' E 004°01'0 0.0
2014-Aug-28 11:32N 52°27' E 004°01'0 0.0
2014-Aug-28 10:32N 52°27' E 004°01'0 0.0
2014-Aug-28 09:32N 52°27' E 004°01'0 0.1
2014-Aug-28 08:32N 52°27' E 004°01'0 0.1
2014-Aug-28 07:32N 52°27' E 004°01'0 0.0
2014-Aug-28 06:32N 52°27' E 004°01'0 0.0
2014-Aug-28 05:26N 52°27' E 004°01'0 0.0
2014-Aug-28 04:32N 52°27' E 004°01'0 0.0
2014-Aug-28 03:32N 52°27' E 004°01'0 0.0
2014-Aug-28 02:32N 52°27' E 004°01'0 0.1
2014-Aug-28 01:32N 52°27' E 004°01'0 0.1
2014-Aug-28 00:32N 52°27' E 004°01'0 0.0
2014-Aug-27 23:32N 52°27' E 004°01'0 0.0
2014-Aug-27 22:32N 52°27' E 004°01'0 0.0
2014-Aug-27 21:29N 52°27' E 004°01'0 0.0
2014-Aug-27 20:32N 52°27' E 004°01'0 0.0
2014-Aug-27 19:32N 52°27' E 004°01'0 0.1
2014-Aug-27 18:32N 52°27' E 004°01'0 0.0
2014-Aug-27 17:32N 52°27' E 004°01'0 0.0
2014-Aug-27 16:32N 52°27' E 004°01'0 0.0
2014-Aug-27 15:32N 52°27' E 004°01'0 0.0
2014-Aug-27 14:32N 52°27' E 004°01'0 0.1
2014-Aug-27 13:32N 52°27' E 004°01'0 0.0
2014-Aug-27 12:32N 52°27' E 004°01'0 0.0
2014-Aug-27 11:32N 52°27' E 004°01'0 0.0
2014-Aug-27 10:26N 52°27' E 004°01'0 0.0
2014-Aug-27 09:28N 52°27' E 004°01'0 0.0
2014-Aug-27 08:32N 52°27' E 004°01'0 0.0
2014-Aug-27 07:32N 52°27' E 004°01'0 0.1
2014-Aug-27 06:28N 52°27' E 004°01'0 0.0
2014-Aug-27 05:16N 52°27' E 004°01'0 0.0
2014-Aug-27 04:29N 52°27' E 004°01'0 0.0
2014-Aug-27 03:32N 52°27' E 004°01'0 0.0
2014-Aug-27 02:28N 52°27' E 004°01'0 0.2
2014-Aug-27 01:31N 52°27' E 004°01'0 0.0
2014-Aug-27 00:31N 52°27' E 004°01'0 0.0
2014-Aug-26 23:31N 52°27' E 004°01'0 0.0
2014-Aug-26 22:31N 52°27' E 004°01'0 0.0
2014-Aug-26 21:31N 52°27' E 004°01'0 0.0
2014-Aug-26 20:32N 52°27' E 004°01'0 0.0
2014-Aug-26 19:31N 52°27' E 004°01'0 0.0
2014-Aug-26 18:31N 52°27' E 004°01'0 0.1
2014-Aug-26 17:22N 52°27' E 004°01'0 0.1
2014-Aug-26 16:31N 52°27' E 004°01'0 0.0
2014-Aug-26 15:31N 52°27' E 004°01'0 0.0
2014-Aug-26 14:31N 52°27' E 004°01'0 0.2
2014-Aug-26 13:25N 52°27' E 004°01'0 0.0
2014-Aug-26 12:28N 52°27' E 004°01'0 0.0
2014-Aug-26 11:31N 52°27' E 004°01'0 0.0
2014-Aug-26 10:31N 52°27' E 004°01'0 0.0
2014-Aug-26 09:31N 52°27' E 004°01'0 0.0
2014-Aug-26 08:31N 52°27' E 004°01'0 0.0
2014-Aug-26 07:31N 52°27' E 004°01'0 0.0
2014-Aug-26 06:31N 52°27' E 004°01'0 0.2
2014-Aug-26 05:28N 52°27' E 004°01'0 0.0
2014-Aug-26 04:22N 52°27' E 004°01'0 0.0
2014-Aug-26 03:19N 52°27' E 004°01'0 0.0
2014-Aug-26 02:28N 52°27' E 004°01'0 0.1
2014-Aug-26 01:31N 52°27' E 004°01'0 0.1
2014-Aug-26 00:28N 52°27' E 004°01'0 0.0
2014-Aug-25 23:16N 52°27' E 004°01'0 0.0
2014-Aug-25 22:31N 52°27' E 004°01'0 0.0
2014-Aug-25 21:31N 52°27' E 004°01'0 0.0
2014-Aug-25 20:31N 52°27' E 004°01'0 0.1
2014-Aug-25 19:31N 52°27' E 004°01'0 0.0
2014-Aug-25 18:31N 52°27' E 004°01'0 0.1
2014-Aug-25 17:22N 52°27' E 004°01'0 0.0
2014-Aug-25 16:28N 52°27' E 004°01'0 0.0
2014-Aug-25 15:31N 52°27' E 004°01'0 0.0
2014-Aug-25 14:28N 52°27' E 004°01'0 0.0
2014-Aug-25 13:04N 52°27' E 004°01'0 0.2
2014-Aug-25 12:28N 52°27' E 004°01'0 0.1
2014-Aug-25 11:25N 52°27' E 004°01'0 0.0
2014-Aug-25 10:28N 52°27' E 004°01'0 0.0
2014-Aug-25 09:28N 52°27' E 004°01'0 0.0
2014-Aug-25 08:31N 52°27' E 004°01'0 0.0
2014-Aug-25 07:31N 52°27' E 004°01'0 0.2
2014-Aug-25 06:28N 52°27' E 004°01'0 0.0
2014-Aug-25 05:30N 52°27' E 004°01'0 0.0
2014-Aug-25 04:33N 52°27' E 004°01'0 0.0
2014-Aug-25 03:34N 52°27' E 004°01'0 0.0
2014-Aug-25 02:33N 52°27' E 004°01'4 4.0
2014-Aug-25 01:33N 52°27' E 003°55'1312.5
2014-Aug-25 00:29N 52°21' E 003°35'1112.2
2014-Aug-24 23:33N 52°14' E 003°20'1111.4
2014-Aug-24 22:33N 52°07' E 003°06'3310.7
2014-Aug-24 19:31N 51°42' E 002°31'1010.6
2014-Aug-24 18:32N 51°34' E 002°21'1111.0
2014-Aug-24 17:31N 51°25' E 002°10'1211.9
2014-Aug-24 16:33N 51°14' E 002°04'1111.3
2014-Aug-24 15:33N 51°08' E 001°49'5011.7
2014-Aug-24 11:15N 50°29' E 000°57'812.1
2014-Aug-24 10:33N 50°27' E 000°45'1412.5
2014-Aug-24 09:28N 50°22' E 000°25'4610.8
2014-Aug-24 05:09N 49°42' W 000°11'711.4
2014-Aug-24 04:33N 49°35' W 000°11'10 9.6
2014-Aug-24 03:33N 49°30' E 000°01'4 4.4
2014-Aug-24 02:33N 49°28' E 000°07'0 0.0
2014-Aug-24 01:33N 49°28' E 000°07'0 0.0
2014-Aug-24 00:33N 49°28' E 000°07'0 0.0
2014-Aug-23 23:30N 49°28' E 000°07'0 0.0
2014-Aug-23 22:33N 49°28' E 000°07'0 0.0
2014-Aug-23 21:33N 49°28' E 000°07'0 0.0
2014-Aug-23 20:33N 49°28' E 000°07'0 0.0
2014-Aug-23 19:33N 49°28' E 000°07'18 1.1
2014-Aug-23 03:33N 49°41' W 000°11'6 5.6
2014-Aug-23 02:33N 49°36' W 000°11'5410.7
2014-Aug-22 21:34N 50°29' E 000°03'1110.7
2014-Aug-22 20:34N 50°32' E 000°19'10 9.7
2014-Aug-22 19:34N 50°35' E 000°33'10 9.6
2014-Aug-22 18:33N 50°40' E 000°46'1110.6
2014-Aug-22 17:33N 50°46' E 000°60'1612.0
2014-Aug-22 16:14N 50°56' E 001°20'812.6
2014-Aug-22 15:33N 51°02' E 001°28'1211.6
2014-Aug-22 14:33N 51°10' E 001°41'1111.5
2014-Aug-22 13:34N 51°20' E 001°53'9 9.1
2014-Aug-22 12:31N 51°24' E 002°06'1111.1
2014-Aug-22 11:32N 51°21' E 002°23'1110.6
2014-Aug-22 10:32N 51°23' E 002°40'1010.5
2014-Aug-22 09:33N 51°23' E 002°56'1110.8
2014-Aug-22 08:33N 51°25' E 003°14'1111.4
2014-Aug-22 07:33N 51°26' E 003°32'  
Track history (hours):
 
Tides and Currents Weather Stations Pressure Air Temp Water Temp Dewpoint Dewpoint Depression Visibility Wind Speed Wind Dir Waves Ship Positions

Fure West

Last reported at 2014-Sep-01 07:33 UTC. Time now 2014-Sep-01 07:52 UTC.
Position N 52°32' E 004°17'.

Length 144 m; draft 5.9 m.

Type: Tanker. MMSI: 231775000.

Date/timePositionNaut miles runAvg speedWind from/ knotsBaromVisibWave heightAir tempDewpointWater temp
2014-Sep-01 07:33N 52°32' E 004°17'0 0.0
2014-Sep-01 06:33N 52°32' E 004°17'0 0.0
2014-Sep-01 05:33N 52°32' E 004°17'0 0.1
2014-Sep-01 04:33N 52°32' E 004°17'0 0.0
2014-Sep-01 03:33N 52°32' E 004°17'0 0.0
2014-Sep-01 02:33N 52°32' E 004°17'0 0.0
2014-Sep-01 01:33N 52°32' E 004°17'0 0.0
2014-Sep-01 00:33N 52°32' E 004°17'0 0.0
2014-Aug-31 23:33N 52°32' E 004°17'0 0.0
2014-Aug-31 22:33N 52°32' E 004°17'0 0.0
2014-Aug-31 21:33N 52°32' E 004°17'0 0.0
2014-Aug-31 20:30N 52°32' E 004°17'0 0.0
2014-Aug-31 19:30N 52°32' E 004°17'0 0.0
2014-Aug-31 18:33N 52°32' E 004°17'0 0.0
2014-Aug-31 17:33N 52°32' E 004°17'0 0.1
2014-Aug-31 16:33N 52°32' E 004°17'0 0.0
2014-Aug-31 15:33N 52°32' E 004°17'0 0.0
2014-Aug-31 14:33N 52°32' E 004°17'0 0.0
2014-Aug-31 13:33N 52°32' E 004°17'0 0.0
2014-Aug-31 12:33N 52°32' E 004°17'0 0.0
2014-Aug-31 11:33N 52°32' E 004°17'0 0.0
2014-Aug-31 10:33N 52°32' E 004°17'0 0.0
2014-Aug-31 09:33N 52°32' E 004°17'0 0.1
2014-Aug-31 08:33N 52°32' E 004°17'0 0.0
2014-Aug-31 07:33N 52°32' E 004°17'0 0.0
2014-Aug-31 06:33N 52°32' E 004°17'0 0.0
2014-Aug-31 05:33N 52°32' E 004°17'0 0.0
2014-Aug-31 04:33N 52°32' E 004°17'0 0.1
2014-Aug-31 03:33N 52°32' E 004°17'0 0.0
2014-Aug-31 02:33N 52°32' E 004°17'0 0.0
2014-Aug-31 01:33N 52°32' E 004°17'0 0.0
2014-Aug-31 00:33N 52°32' E 004°17'0 0.0
2014-Aug-30 23:33N 52°32' E 004°17'0 0.0
2014-Aug-30 22:33N 52°32' E 004°17'0 0.1
2014-Aug-30 21:33N 52°32' E 004°17'0 0.0
2014-Aug-30 20:33N 52°32' E 004°17'0 0.0
2014-Aug-30 19:33N 52°32' E 004°17'0 0.0
2014-Aug-30 18:33N 52°32' E 004°17'0 0.0
2014-Aug-30 17:33N 52°32' E 004°17'7 7.0
2014-Aug-30 16:33N 52°29' E 004°27'6 5.9
2014-Aug-30 15:33N 52°28' E 004°37'0 0.0
2014-Aug-30 14:34N 52°28' E 004°37'3 3.1
2014-Aug-30 13:33N 52°27' E 004°41'6 5.6
2014-Aug-30 12:33N 52°24' E 004°50'0 0.0
2014-Aug-30 11:33N 52°24' E 004°50'0 0.0
2014-Aug-30 10:33N 52°24' E 004°50'0 0.0
2014-Aug-30 09:33N 52°24' E 004°50'0 0.0
2014-Aug-30 08:33N 52°24' E 004°50'0 0.0
2014-Aug-30 07:33N 52°24' E 004°50'0 0.0
2014-Aug-30 06:33N 52°24' E 004°50'0 0.0
2014-Aug-30 05:33N 52°24' E 004°50'0 0.0
2014-Aug-30 04:33N 52°24' E 004°50'0 0.0
2014-Aug-30 03:33N 52°24' E 004°50'0 0.0
2014-Aug-30 02:33N 52°24' E 004°50'0 0.0
2014-Aug-30 01:33N 52°24' E 004°50'0 0.0
2014-Aug-30 00:33N 52°24' E 004°50'0 0.0
2014-Aug-29 23:33N 52°24' E 004°50'0 0.0
2014-Aug-29 22:30N 52°24' E 004°50'0 0.0
2014-Aug-29 21:33N 52°24' E 004°50'0 0.0
2014-Aug-29 19:30N 52°24' E 004°50'0 0.0
2014-Aug-29 18:33N 52°24' E 004°50'0 0.0
2014-Aug-29 17:33N 52°24' E 004°50'0 0.0
2014-Aug-29 16:30N 52°24' E 004°50'0 0.0
2014-Aug-29 15:30N 52°24' E 004°50'0 0.0
2014-Aug-29 14:33N 52°24' E 004°50'0 0.1
2014-Aug-29 13:33N 52°24' E 004°50'4 4.1
2014-Aug-29 12:33N 52°26' E 004°43'5 4.6
2014-Aug-29 11:33N 52°28' E 004°37'6 6.4
2014-Aug-29 10:33N 52°28' E 004°26'9 8.6
2014-Aug-29 09:33N 52°29' E 004°12'7 6.5
2014-Aug-29 08:32N 52°27' E 004°02'0 0.0
2014-Aug-29 07:32N 52°27' E 004°02'0 0.0
2014-Aug-29 06:32N 52°27' E 004°01'0 0.0
2014-Aug-29 05:32N 52°27' E 004°01'0 0.0
2014-Aug-29 04:32N 52°27' E 004°01'0 0.0
2014-Aug-29 03:32N 52°27' E 004°01'0 0.0
2014-Aug-29 02:32N 52°27' E 004°02'0 0.0
2014-Aug-29 01:32N 52°27' E 004°02'0 0.1
2014-Aug-29 00:32N 52°27' E 004°01'0 0.0
2014-Aug-28 23:32N 52°27' E 004°01'0 0.0
2014-Aug-28 22:32N 52°27' E 004°01'0 0.1
2014-Aug-28 21:32N 52°27' E 004°02'0 0.1
2014-Aug-28 20:32N 52°27' E 004°02'0 0.0
2014-Aug-28 19:32N 52°27' E 004°01'0 0.0
2014-Aug-28 18:29N 52°27' E 004°01'0 0.0
2014-Aug-28 17:32N 52°27' E 004°01'0 0.0
2014-Aug-28 16:32N 52°27' E 004°01'0 0.0
2014-Aug-28 15:32N 52°27' E 004°01'0 0.0
2014-Aug-28 14:32N 52°27' E 004°01'0 0.0
2014-Aug-28 13:32N 52°27' E 004°01'0 0.1
2014-Aug-28 12:32N 52°27' E 004°01'0 0.0
2014-Aug-28 11:32N 52°27' E 004°01'0 0.0
2014-Aug-28 10:32N 52°27' E 004°01'0 0.0
2014-Aug-28 09:32N 52°27' E 004°01'0 0.1
2014-Aug-28 08:32N 52°27' E 004°01'0 0.1
2014-Aug-28 07:32N 52°27' E 004°01'0 0.0
2014-Aug-28 06:32N 52°27' E 004°01'0 0.0
2014-Aug-28 05:26N 52°27' E 004°01'0 0.0
2014-Aug-28 04:32N 52°27' E 004°01'0 0.0
2014-Aug-28 03:32N 52°27' E 004°01'0 0.0
2014-Aug-28 02:32N 52°27' E 004°01'0 0.1
2014-Aug-28 01:32N 52°27' E 004°01'0 0.1
2014-Aug-28 00:32N 52°27' E 004°01'0 0.0
2014-Aug-27 23:32N 52°27' E 004°01'0 0.0
2014-Aug-27 22:32N 52°27' E 004°01'0 0.0
2014-Aug-27 21:29N 52°27' E 004°01'0 0.0
2014-Aug-27 20:32N 52°27' E 004°01'0 0.0
2014-Aug-27 19:32N 52°27' E 004°01'0 0.1
2014-Aug-27 18:32N 52°27' E 004°01'0 0.0
2014-Aug-27 17:32N 52°27' E 004°01'0 0.0
2014-Aug-27 16:32N 52°27' E 004°01'0 0.0
2014-Aug-27 15:32N 52°27' E 004°01'0 0.0
2014-Aug-27 14:32N 52°27' E 004°01'0 0.1
2014-Aug-27 13:32N 52°27' E 004°01'0 0.0
2014-Aug-27 12:32N 52°27' E 004°01'0 0.0
2014-Aug-27 11:32N 52°27' E 004°01'0 0.0
2014-Aug-27 10:26N 52°27' E 004°01'0 0.0
2014-Aug-27 09:28N 52°27' E 004°01'0 0.0
2014-Aug-27 08:32N 52°27' E 004°01'0 0.0
2014-Aug-27 07:32N 52°27' E 004°01'0 0.1
2014-Aug-27 06:28N 52°27' E 004°01'0 0.0
2014-Aug-27 05:16N 52°27' E 004°01'0 0.0
2014-Aug-27 04:29N 52°27' E 004°01'0 0.0
2014-Aug-27 03:32N 52°27' E 004°01'0 0.0
2014-Aug-27 02:28N 52°27' E 004°01'0 0.2
2014-Aug-27 01:31N 52°27' E 004°01'0 0.0
2014-Aug-27 00:31N 52°27' E 004°01'0 0.0
2014-Aug-26 23:31N 52°27' E 004°01'0 0.0
2014-Aug-26 22:31N 52°27' E 004°01'0 0.0
2014-Aug-26 21:31N 52°27' E 004°01'0 0.0
2014-Aug-26 20:32N 52°27' E 004°01'0 0.0
2014-Aug-26 19:31N 52°27' E 004°01'0 0.0
2014-Aug-26 18:31N 52°27' E 004°01'0 0.1
2014-Aug-26 17:22N 52°27' E 004°01'0 0.1
2014-Aug-26 16:31N 52°27' E 004°01'0 0.0
2014-Aug-26 15:31N 52°27' E 004°01'0 0.0
2014-Aug-26 14:31N 52°27' E 004°01'0 0.2
2014-Aug-26 13:25N 52°27' E 004°01'0 0.0
2014-Aug-26 12:28N 52°27' E 004°01'0 0.0
2014-Aug-26 11:31N 52°27' E 004°01'0 0.0
2014-Aug-26 10:31N 52°27' E 004°01'0 0.0
2014-Aug-26 09:31N 52°27' E 004°01'0 0.0
2014-Aug-26 08:31N 52°27' E 004°01'0 0.0
2014-Aug-26 07:31N 52°27' E 004°01'0 0.0
2014-Aug-26 06:31N 52°27' E 004°01'0 0.2
2014-Aug-26 05:28N 52°27' E 004°01'0 0.0
2014-Aug-26 04:22N 52°27' E 004°01'0 0.0
2014-Aug-26 03:19N 52°27' E 004°01'0 0.0
2014-Aug-26 02:28N 52°27' E 004°01'0 0.1
2014-Aug-26 01:31N 52°27' E 004°01'0 0.1
2014-Aug-26 00:28N 52°27' E 004°01'0 0.0
2014-Aug-25 23:16N 52°27' E 004°01'0 0.0
2014-Aug-25 22:31N 52°27' E 004°01'0 0.0
2014-Aug-25 21:31N 52°27' E 004°01'0 0.0
2014-Aug-25 20:31N 52°27' E 004°01'0 0.1
2014-Aug-25 19:31N 52°27' E 004°01'0 0.0
2014-Aug-25 18:31N 52°27' E 004°01'0 0.1
2014-Aug-25 17:22N 52°27' E 004°01'0 0.0
2014-Aug-25 16:28N 52°27' E 004°01'0 0.0
2014-Aug-25 15:31N 52°27' E 004°01'0 0.0
2014-Aug-25 14:28N 52°27' E 004°01'0 0.0
2014-Aug-25 13:04N 52°27' E 004°01'0 0.2
2014-Aug-25 12:28N 52°27' E 004°01'0 0.1
2014-Aug-25 11:25N 52°27' E 004°01'0 0.0
2014-Aug-25 10:28N 52°27' E 004°01'0 0.0
2014-Aug-25 09:28N 52°27' E 004°01'0 0.0
2014-Aug-25 08:31N 52°27' E 004°01'0 0.0
2014-Aug-25 07:31N 52°27' E 004°01'0 0.2
2014-Aug-25 06:28N 52°27' E 004°01'0 0.0
2014-Aug-25 05:30N 52°27' E 004°01'0 0.0
2014-Aug-25 04:33N 52°27' E 004°01'0 0.0
2014-Aug-25 03:34N 52°27' E 004°01'0 0.0
2014-Aug-25 02:33N 52°27' E 004°01'4 4.0
2014-Aug-25 01:33N 52°27' E 003°55'1312.5
2014-Aug-25 00:29N 52°21' E 003°35'1112.2
2014-Aug-24 23:33N 52°14' E 003°20'1111.4
2014-Aug-24 22:33N 52°07' E 003°06'3310.7
2014-Aug-24 19:31N 51°42' E 002°31'1010.6
2014-Aug-24 18:32N 51°34' E 002°21'1111.0
2014-Aug-24 17:31N 51°25' E 002°10'1211.9
2014-Aug-24 16:33N 51°14' E 002°04'1111.3
2014-Aug-24 15:33N 51°08' E 001°49'5011.7
2014-Aug-24 11:15N 50°29' E 000°57'812.1
2014-Aug-24 10:33N 50°27' E 000°45'1412.5
2014-Aug-24 09:28N 50°22' E 000°25'4610.8
2014-Aug-24 05:09N 49°42' W 000°11'711.4
2014-Aug-24 04:33N 49°35' W 000°11'10 9.6
2014-Aug-24 03:33N 49°30' E 000°01'4 4.4
2014-Aug-24 02:33N 49°28' E 000°07'0 0.0
2014-Aug-24 01:33N 49°28' E 000°07'0 0.0
2014-Aug-24 00:33N 49°28' E 000°07'0 0.0
2014-Aug-23 23:30N 49°28' E 000°07'0 0.0
2014-Aug-23 22:33N 49°28' E 000°07'0 0.0
2014-Aug-23 21:33N 49°28' E 000°07'0 0.0
2014-Aug-23 20:33N 49°28' E 000°07'0 0.0
2014-Aug-23 19:33N 49°28' E 000°07'18 1.1
2014-Aug-23 03:33N 49°41' W 000°11'6 5.6
2014-Aug-23 02:33N 49°36' W 000°11'5410.7
2014-Aug-22 21:34N 50°29' E 000°03'1110.7
2014-Aug-22 20:34N 50°32' E 000°19'10 9.7
2014-Aug-22 19:34N 50°35' E 000°33'10 9.6
2014-Aug-22 18:33N 50°40' E 000°46'1110.6
2014-Aug-22 17:33N 50°46' E 000°60'1612.0
2014-Aug-22 16:14N 50°56' E 001°20'812.6
2014-Aug-22 15:33N 51°02' E 001°28'1211.6
2014-Aug-22 14:33N 51°10' E 001°41'1111.5
2014-Aug-22 13:34N 51°20' E 001°53'9 9.1
2014-Aug-22 12:31N 51°24' E 002°06'1111.1
2014-Aug-22 11:32N 51°21' E 002°23'1110.6
2014-Aug-22 10:32N 51°23' E 002°40'1010.5
2014-Aug-22 09:33N 51°23' E 002°56'1110.8
2014-Aug-22 08:33N 51°25' E 003°14'1111.4
2014-Aug-22 07:33N 51°26' E 003°32'  

Dump ship's entire track history